Ellendale, Tennessee
Current Conditions -  °F | °C
As of 6:50 AM on Thursday 27 Nov 2014 (Local Time) from KNQA Reporting Station
Overcast Overcast  
Wind Chill:   Ceiling: 3300
Heat Index:   Visibility: 10mi
Dew Point: -1°   Wind: 8mph
Humidity: 75%   Direction: 320°NW
Pressure: 30.42"   Gusts: NA
Location:  35.23°N, 89.83°W
Report Text: KNQA 271250Z 32007KT 10SM OVC033 03/M01 A3042
Loading
Personal Weather Stations






























Interactive Weather Map New forecast layout! Learn more

10-Day Weather Forecast

Advertisements
Track Severe Weather on mobile